createdAt,value
2022-10-10T00:01:31.201Z,7.84
2022-10-10T00:06:33.362Z,7.74
2022-10-10T00:11:31.006Z,7.63
2022-10-10T00:16:30.932Z,7.53
2022-10-10T00:21:30.871Z,7.39
2022-10-10T00:26:30.798Z,7.31
2022-10-10T00:31:30.736Z,7.21
2022-10-10T00:36:30.666Z,7.11
2022-10-10T00:41:30.614Z,7.06
2022-10-10T00:46:30.529Z,7.03
2022-10-10T00:51:30.480Z,6.99
2022-10-10T00:56:30.396Z,6.97
2022-10-10T01:01:30.347Z,6.99
2022-10-10T01:06:30.262Z,7.00
2022-10-10T01:11:30.214Z,7.07
2022-10-10T01:16:30.129Z,7.14
2022-10-10T01:21:30.069Z,7.21
2022-10-10T01:26:29.999Z,7.21
2022-10-10T01:31:29.939Z,7.20
2022-10-10T01:36:29.863Z,7.17
2022-10-10T01:41:29.804Z,7.07
2022-10-10T01:46:29.734Z,7.02
2022-10-10T01:51:29.673Z,7.05
2022-10-10T01:56:29.596Z,7.13
2022-10-10T02:01:29.540Z,7.14
2022-10-10T02:06:29.514Z,7.21
2022-10-10T02:11:29.571Z,7.35
2022-10-10T02:16:29.635Z,7.57
2022-10-10T02:21:29.625Z,7.75
2022-10-10T02:26:29.599Z,7.90
2022-10-10T02:31:29.642Z,8.02
2022-10-10T02:36:29.068Z,8.08
2022-10-10T02:41:29.011Z,8.17
2022-10-10T02:46:28.946Z,8.25
2022-10-10T02:51:30.496Z,8.29
2022-10-10T02:56:28.812Z,8.30
2022-10-10T03:01:28.837Z,8.38
2022-10-10T03:06:28.679Z,8.44
2022-10-10T03:11:28.612Z,8.42
2022-10-10T03:16:28.545Z,8.42
2022-10-10T03:21:28.477Z,8.41
2022-10-10T03:26:28.402Z,8.38
2022-10-10T03:31:28.342Z,8.32
2022-10-10T03:36:28.312Z,8.27
2022-10-10T03:41:28.221Z,8.26
2022-10-10T03:46:28.162Z,8.29
2022-10-10T03:51:28.088Z,8.33
2022-10-10T03:56:28.031Z,8.38
2022-10-10T04:01:28.031Z,8.44
2022-10-10T04:06:27.896Z,8.41
2022-10-10T04:11:27.822Z,8.35
2022-10-10T04:16:27.761Z,8.26
2022-10-10T04:21:27.687Z,8.18
2022-10-10T04:26:27.628Z,8.08
2022-10-10T04:31:27.554Z,8.02
2022-10-10T04:36:27.494Z,7.99
2022-10-10T04:41:27.429Z,7.92
2022-10-10T04:46:27.356Z,7.79
2022-10-10T04:51:27.295Z,7.69
2022-10-10T04:56:27.222Z,7.58
2022-10-10T05:01:27.205Z,7.45
2022-10-10T05:06:27.089Z,7.36
2022-10-10T05:11:27.030Z,7.35
2022-10-10T05:16:26.957Z,7.39
2022-10-10T05:21:26.896Z,7.43
2022-10-10T05:26:26.827Z,7.40
2022-10-10T05:31:26.766Z,7.38
2022-10-10T05:36:26.697Z,7.39
2022-10-10T05:41:26.632Z,7.31
2022-10-10T05:46:26.559Z,7.28
2022-10-10T05:51:26.502Z,7.63
2022-10-10T05:56:26.425Z,7.93
2022-10-10T06:01:26.368Z,8.30
2022-10-10T06:06:26.296Z,8.61
2022-10-10T06:11:26.235Z,8.79
2022-10-10T06:16:26.158Z,8.97
2022-10-10T06:21:26.100Z,9.31
2022-10-10T06:26:26.025Z,9.61
2022-10-10T06:31:25.967Z,10.05
2022-10-10T06:36:25.898Z,10.81
2022-10-10T06:41:25.834Z,11.43
2022-10-10T06:46:25.763Z,12.31
2022-10-10T06:51:25.705Z,12.57
2022-10-10T06:56:27.832Z,12.44
2022-10-10T07:01:25.632Z,14.30
2022-10-10T07:06:25.495Z,15.38
2022-10-10T07:11:25.436Z,16.13
2022-10-10T07:16:25.362Z,16.78
2022-10-10T07:21:25.303Z,17.44
2022-10-10T07:26:25.228Z,17.77
2022-10-10T07:31:25.170Z,18.22
2022-10-10T07:36:25.097Z,18.68
2022-10-10T07:41:25.044Z,19.21
2022-10-10T07:46:24.962Z,19.81
2022-10-10T07:51:24.903Z,19.79
2022-10-10T07:56:24.827Z,20.19
2022-10-10T08:01:24.820Z,20.99
2022-10-10T08:06:24.695Z,21.27
2022-10-10T08:11:24.633Z,21.48
2022-10-10T08:16:24.565Z,21.69
2022-10-10T08:21:24.500Z,21.90
2022-10-10T08:26:24.423Z,22.17
2022-10-10T08:31:24.365Z,22.98
2022-10-10T08:36:24.296Z,22.96
2022-10-10T08:41:24.240Z,22.44
2022-10-10T08:46:24.160Z,22.06
2022-10-10T08:51:24.104Z,21.82
2022-10-10T08:56:24.030Z,21.73
2022-10-10T09:01:27.940Z,21.82
2022-10-10T09:06:23.894Z,22.32
2022-10-10T09:11:23.840Z,22.63
2022-10-10T09:16:23.766Z,22.80
2022-10-10T09:21:23.709Z,23.09
2022-10-10T09:26:23.639Z,23.06
2022-10-10T09:31:23.581Z,23.02
2022-10-10T09:36:23.516Z,23.25
2022-10-10T09:41:23.453Z,23.25
2022-10-10T09:46:23.382Z,23.42
2022-10-10T09:51:23.323Z,23.65
2022-10-10T09:56:23.251Z,23.42
2022-10-10T10:01:23.254Z,23.68
2022-10-10T10:06:23.113Z,23.82
2022-10-10T10:11:23.057Z,23.92
2022-10-10T10:16:22.986Z,24.42
2022-10-10T10:21:22.931Z,24.38
2022-10-10T10:26:22.861Z,24.29
2022-10-10T10:31:22.802Z,25.02
2022-10-10T10:36:22.727Z,24.95
2022-10-10T10:41:22.671Z,25.06
2022-10-10T10:46:22.595Z,24.43
2022-10-10T10:51:22.541Z,24.39
2022-10-10T10:56:22.550Z,23.87
2022-10-10T11:01:38.594Z,23.79
2022-10-10T11:06:23.534Z,23.45
2022-10-10T11:11:22.274Z,22.98
2022-10-10T11:16:43.929Z,23.67
2022-10-10T11:21:23.167Z,23.21
2022-10-10T11:26:22.068Z,22.90
2022-10-10T11:31:22.008Z,22.54
2022-10-10T11:36:21.934Z,21.94
2022-10-10T11:41:21.882Z,21.35
2022-10-10T11:46:21.803Z,21.05
2022-10-10T11:51:21.741Z,21.06
2022-10-10T11:56:21.669Z,20.84
2022-10-10T12:01:21.609Z,20.61
2022-10-10T12:06:21.555Z,20.55
2022-10-10T12:11:21.470Z,20.49
2022-10-10T12:16:21.393Z,20.22
2022-10-10T12:21:21.394Z,20.18
2022-10-10T12:26:21.265Z,20.07
2022-10-10T12:31:21.195Z,19.99
2022-10-10T12:36:21.120Z,19.89
2022-10-10T12:41:21.069Z,19.79
2022-10-10T12:46:20.980Z,19.72
2022-10-10T12:51:20.925Z,19.79
2022-10-10T12:56:20.848Z,19.84
2022-10-10T13:01:20.842Z,19.85
2022-10-10T13:06:20.744Z,19.81
2022-10-10T13:11:20.655Z,19.82
2022-10-10T13:16:20.592Z,19.85
2022-10-10T13:21:20.525Z,19.76
2022-10-10T13:26:20.452Z,19.77
2022-10-10T13:31:20.404Z,19.70
2022-10-10T13:36:20.347Z,19.68
2022-10-10T13:41:20.265Z,19.73
2022-10-10T13:46:20.195Z,19.69
2022-10-10T13:51:20.138Z,19.65
2022-10-10T13:56:20.063Z,19.61
2022-10-10T14:01:20.064Z,19.63
2022-10-10T14:06:19.940Z,19.65
2022-10-10T14:11:19.874Z,19.61
2022-10-10T14:16:20.148Z,19.63
2022-10-10T14:21:19.743Z,19.62
2022-10-10T14:26:19.675Z,19.61
2022-10-10T14:31:19.614Z,19.55
2022-10-10T14:36:19.543Z,19.50
2022-10-10T14:41:19.484Z,19.50
2022-10-10T14:46:19.411Z,19.47
2022-10-10T14:51:33.768Z,19.47
2022-10-10T14:56:20.313Z,19.46
2022-10-10T15:01:19.223Z,19.46
2022-10-10T15:06:19.157Z,19.43
2022-10-10T15:11:19.094Z,19.33
2022-10-10T15:16:19.025Z,19.28
2022-10-10T15:21:18.967Z,19.23
2022-10-10T15:26:18.904Z,19.14
2022-10-10T15:31:18.838Z,19.03
2022-10-10T15:36:19.389Z,18.95
2022-10-10T15:41:18.709Z,18.86
2022-10-10T15:46:18.636Z,18.80
2022-10-10T15:51:18.574Z,18.71
2022-10-10T15:56:18.507Z,18.60
2022-10-10T16:01:18.500Z,18.47
2022-10-10T16:06:18.371Z,18.34
2022-10-10T16:11:18.310Z,18.21
2022-10-10T16:16:18.233Z,18.04
2022-10-10T16:21:18.173Z,17.88
2022-10-10T16:26:18.098Z,17.70
2022-10-10T16:31:18.039Z,17.48
2022-10-10T16:36:17.963Z,17.36
2022-10-10T16:41:35.571Z,17.22
2022-10-10T16:46:18.858Z,17.09
2022-10-10T16:51:17.769Z,16.99
2022-10-10T16:56:17.696Z,16.82
2022-10-10T17:01:17.718Z,16.71
2022-10-10T17:06:17.561Z,16.64
2022-10-10T17:11:17.500Z,16.52
2022-10-10T17:21:18.395Z,16.30
2022-10-10T17:26:17.293Z,16.20
2022-10-10T17:31:17.235Z,16.10
2022-10-10T17:36:17.160Z,16.01
2022-10-10T17:41:17.101Z,15.91
2022-10-10T17:51:18.968Z,15.70
2022-10-10T17:56:16.897Z,15.68
2022-10-10T18:01:16.909Z,15.65
2022-10-10T18:06:16.763Z,15.67
2022-10-10T18:11:16.707Z,15.67
2022-10-10T18:16:16.629Z,15.61
2022-10-10T18:21:16.572Z,15.52
2022-10-10T18:26:16.501Z,15.36
2022-10-10T18:31:16.441Z,15.14
2022-10-10T18:36:16.370Z,15.01
2022-10-10T18:41:16.308Z,14.87
2022-10-10T18:46:16.232Z,14.80
2022-10-10T18:51:16.173Z,14.69
2022-10-10T18:56:16.100Z,14.63
2022-10-10T19:01:16.593Z,14.58
2022-10-10T19:06:15.966Z,14.55
2022-10-10T19:11:15.907Z,14.53
2022-10-10T19:16:15.829Z,14.50
2022-10-10T19:21:15.766Z,14.47
2022-10-10T19:26:15.709Z,14.44
2022-10-10T19:31:15.629Z,14.43
2022-10-10T19:36:15.553Z,14.47
2022-10-10T19:41:15.493Z,14.54
2022-10-10T19:46:15.528Z,14.59
2022-10-10T19:51:15.356Z,14.60
2022-10-10T19:56:15.279Z,14.63
2022-10-10T20:01:15.440Z,14.65
2022-10-10T20:06:15.144Z,14.63
2022-10-10T20:11:15.081Z,14.65
2022-10-10T20:16:15.007Z,14.63
2022-10-10T20:21:16.657Z,14.68
2022-10-10T20:26:14.870Z,14.72
2022-10-10T20:31:14.806Z,14.69
2022-10-10T20:36:14.734Z,14.63
2022-10-10T20:41:14.673Z,14.55
2022-10-10T20:46:14.593Z,14.48
2022-10-10T20:51:14.537Z,14.43
2022-10-10T20:56:14.458Z,14.37
2022-10-10T21:01:14.471Z,14.32
2022-10-10T21:06:14.318Z,14.32
2022-10-10T21:11:14.258Z,14.33
2022-10-10T21:16:14.185Z,14.35
2022-10-10T21:21:14.122Z,14.35
2022-10-10T21:26:14.045Z,14.35
2022-10-10T21:31:13.987Z,14.37
2022-10-10T21:36:13.910Z,14.37
2022-10-10T21:41:13.848Z,14.43
2022-10-10T21:46:13.777Z,14.43
2022-10-10T21:51:13.713Z,14.48
2022-10-10T21:56:13.646Z,14.58
2022-10-10T22:01:13.703Z,14.62
2022-10-10T22:06:13.499Z,14.63
2022-10-10T22:11:13.439Z,14.63
2022-10-10T22:16:13.362Z,14.63
2022-10-10T22:21:13.306Z,14.62
2022-10-10T22:26:13.225Z,14.62
2022-10-10T22:31:13.165Z,14.63
2022-10-10T22:36:13.089Z,14.63
2022-10-10T22:41:13.029Z,14.62
2022-10-10T22:46:12.951Z,14.65
2022-10-10T22:51:12.894Z,14.65
2022-10-10T22:56:12.816Z,14.66
2022-10-10T23:01:12.784Z,14.65
2022-10-10T23:06:12.682Z,14.60
2022-10-10T23:11:12.620Z,14.55
2022-10-10T23:16:12.545Z,14.51
2022-10-10T23:21:12.484Z,14.45
2022-10-10T23:26:12.407Z,14.36
2022-10-10T23:31:12.354Z,14.28
2022-10-10T23:36:12.276Z,14.14
2022-10-10T23:41:12.220Z,14.03
2022-10-10T23:46:12.187Z,13.91
2022-10-10T23:51:12.097Z,13.84
2022-10-10T23:56:12.020Z,13.82
